FDX60 ZSPD-ZGGG
Flight info
| Callsign | FDX60 |
|---|---|
| Flight time | 1h 53m |
| Altitude | 38100 |
| Route | NXD92D NXD W131 AKDIM A470 DUBGO W134 ELNEX A599 PLT W19 OLPAB OLPAB8 |
| Aircraft | MD11/H-SDE1E2E3FGHIJ2J3J4J5M1RWXY/LB1D1 |
Departure
| Time | 2026-04-30 11:48 |
|---|---|
| Airport | Shanghai Pudong International Airport (ZSPD) |
Arrival
| Time | 2026-04-30 13:41 |
|---|---|
| Airport | Guangzhou Baiyun International Airport (ZGGG) |
| Time | Latitude | Longitude | Altitude | Speed | Heading |
|---|---|---|---|---|---|
| 2026-04-30 11:09 | 31.15756 | 121.79177 | 29 ft | 0 kts | 72° |
| 2026-04-30 11:12 | 31.15754 | 121.79171 | 30 ft | 0 kts | 72° |
| 2026-04-30 11:32 | 31.15751 | 121.79158 | 30 ft | 3 kts | 72° |
| 2026-04-30 11:32 | 31.15744 | 121.79136 | 30 ft | 3 kts | 72° |
| 2026-04-30 11:33 | 31.15734 | 121.79094 | 30 ft | 3 kts | 99° |
| 2026-04-30 11:33 | 31.15738 | 121.79079 | 30 ft | 3 kts | 138° |
| 2026-04-30 11:33 | 31.15752 | 121.79067 | 30 ft | 3 kts | 162° |
| 2026-04-30 11:33 | 31.15770 | 121.79061 | 30 ft | 1 kts | 162° |
| 2026-04-30 11:37 | 31.15767 | 121.79062 | 30 ft | 3 kts | 162° |
| 2026-04-30 11:37 | 31.15708 | 121.79085 | 30 ft | 13 kts | 162° |
| 2026-04-30 11:37 | 31.15668 | 121.79092 | 30 ft | 2 kts | 189° |
| 2026-04-30 11:37 | 31.15625 | 121.79056 | 29 ft | 10 kts | 227° |
| 2026-04-30 11:38 | 31.15587 | 121.79032 | 30 ft | 7 kts | 192° |
| 2026-04-30 11:38 | 31.15518 | 121.79048 | 30 ft | 11 kts | 161° |
| 2026-04-30 11:38 | 31.15447 | 121.79075 | 30 ft | 11 kts | 162° |
| 2026-04-30 11:38 | 31.15376 | 121.79102 | 30 ft | 11 kts | 162° |
| 2026-04-30 11:39 | 31.15304 | 121.79129 | 30 ft | 11 kts | 162° |
| 2026-04-30 11:39 | 31.15248 | 121.79149 | 30 ft | 16 kts | 162° |
| 2026-04-30 11:39 | 31.15120 | 121.79198 | 30 ft | 20 kts | 162° |
| 2026-04-30 11:39 | 31.14990 | 121.79246 | 30 ft | 19 kts | 162° |
| 2026-04-30 11:40 | 31.14860 | 121.79295 | 31 ft | 21 kts | 162° |
| 2026-04-30 11:40 | 31.14708 | 121.79353 | 31 ft | 25 kts | 161° |
| 2026-04-30 11:40 | 31.14533 | 121.79418 | 29 ft | 28 kts | 161° |
| 2026-04-30 11:40 | 31.14343 | 121.79491 | 29 ft | 28 kts | 162° |
| 2026-04-30 11:41 | 31.14164 | 121.79558 | 28 ft | 26 kts | 162° |
| 2026-04-30 11:41 | 31.13999 | 121.79621 | 30 ft | 24 kts | 162° |
| 2026-04-30 11:41 | 31.13841 | 121.79680 | 30 ft | 23 kts | 162° |
| 2026-04-30 11:41 | 31.13688 | 121.79737 | 30 ft | 23 kts | 162° |
| 2026-04-30 11:42 | 31.13541 | 121.79793 | 30 ft | 22 kts | 161° |
| 2026-04-30 11:42 | 31.13397 | 121.79847 | 30 ft | 21 kts | 162° |
| 2026-04-30 11:42 | 31.13256 | 121.79900 | 29 ft | 21 kts | 161° |
| 2026-04-30 11:42 | 31.13121 | 121.79952 | 29 ft | 20 kts | 163° |
| 2026-04-30 11:43 | 31.12988 | 121.80001 | 30 ft | 20 kts | 162° |
| 2026-04-30 11:43 | 31.12860 | 121.80049 | 30 ft | 19 kts | 162° |
| 2026-04-30 11:43 | 31.12790 | 121.80072 | 29 ft | 3 kts | 179° |
| 2026-04-30 11:43 | 31.12761 | 121.80055 | 30 ft | 7 kts | 220° |
| 2026-04-30 11:44 | 31.12742 | 121.80019 | 31 ft | 0 kts | 253° |
| 2026-04-30 11:46 | 31.12737 | 121.79999 | 31 ft | 9 kts | 253° |
| 2026-04-30 11:46 | 31.12719 | 121.79912 | 31 ft | 6 kts | 269° |
| 2026-04-30 11:46 | 31.12741 | 121.79869 | 30 ft | 6 kts | 320° |
| 2026-04-30 11:46 | 31.12764 | 121.79860 | 30 ft | 0 kts | 343° |
| 2026-04-30 11:47 | 31.12920 | 121.79803 | 28 ft | 71 kts | 341° |
| 2026-04-30 11:47 | 31.13715 | 121.79505 | 30 ft | 164 kts | 342° |
| 2026-04-30 11:47 | 31.14931 | 121.79037 | 567 ft | 189 kts | 341° |
| 2026-04-30 11:48 | 31.16192 | 121.78533 | 1566 ft | 194 kts | 340° |
| 2026-04-30 11:48 | 31.17469 | 121.77992 | 2624 ft | 195 kts | 339° |
| 2026-04-30 11:48 | 31.18737 | 121.77469 | 3670 ft | 201 kts | 339° |
| 2026-04-30 11:48 | 31.20206 | 121.76918 | 3916 ft | 240 kts | 339° |
| 2026-04-30 11:49 | 31.21847 | 121.76311 | 4065 ft | 260 kts | 339° |
| 2026-04-30 11:49 | 31.23578 | 121.75669 | 4661 ft | 260 kts | 340° |
| 2026-04-30 11:49 | 31.25290 | 121.75036 | 5356 ft | 257 kts | 340° |
| 2026-04-30 11:49 | 31.26877 | 121.74136 | 5976 ft | 254 kts | 321° |
| 2026-04-30 11:50 | 31.27942 | 121.72497 | 6760 ft | 257 kts | 298° |
| 2026-04-30 11:50 | 31.28682 | 121.70578 | 7683 ft | 260 kts | 295° |
| 2026-04-30 11:50 | 31.29431 | 121.68639 | 8610 ft | 263 kts | 297° |
| 2026-04-30 11:50 | 31.30262 | 121.66688 | 9541 ft | 267 kts | 298° |
| 2026-04-30 11:51 | 31.31137 | 121.64784 | 10284 ft | 278 kts | 298° |
| 2026-04-30 11:51 | 31.32047 | 121.62645 | 10435 ft | 309 kts | 292° |
| 2026-04-30 11:51 | 31.32648 | 121.60117 | 10653 ft | 335 kts | 278° |
| 2026-04-30 11:51 | 31.32630 | 121.57341 | 11052 ft | 340 kts | 265° |
| 2026-04-30 11:52 | 31.32246 | 121.54610 | 11424 ft | 341 kts | 261° |
| 2026-04-30 11:52 | 31.31759 | 121.51894 | 11768 ft | 341 kts | 259° |
| 2026-04-30 11:52 | 31.31258 | 121.49183 | 11874 ft | 341 kts | 259° |
| 2026-04-30 11:52 | 31.30771 | 121.46479 | 11896 ft | 340 kts | 260° |
| 2026-04-30 11:53 | 31.30301 | 121.43772 | 11897 ft | 340 kts | 260° |
| 2026-04-30 11:53 | 31.29842 | 121.41069 | 11903 ft | 339 kts | 261° |
| 2026-04-30 11:53 | 31.29389 | 121.38359 | 11898 ft | 339 kts | 261° |
| 2026-04-30 11:53 | 31.28894 | 121.35665 | 11905 ft | 340 kts | 256° |
| 2026-04-30 11:54 | 31.27975 | 121.33117 | 11887 ft | 344 kts | 240° |
| 2026-04-30 11:54 | 31.26418 | 121.30972 | 11898 ft | 350 kts | 227° |
| 2026-04-30 11:54 | 31.24570 | 121.29103 | 11901 ft | 352 kts | 223° |
| 2026-04-30 11:54 | 31.22651 | 121.27323 | 11898 ft | 353 kts | 223° |
| 2026-04-30 11:55 | 31.20723 | 121.25553 | 11899 ft | 352 kts | 223° |
| 2026-04-30 11:55 | 31.18803 | 121.23769 | 11896 ft | 352 kts | 223° |
| 2026-04-30 11:55 | 31.16899 | 121.21976 | 11897 ft | 352 kts | 223° |
| 2026-04-30 11:55 | 31.15001 | 121.20175 | 11905 ft | 352 kts | 224° |
| 2026-04-30 11:56 | 31.13107 | 121.18365 | 11907 ft | 352 kts | 224° |
| 2026-04-30 11:56 | 31.11215 | 121.16552 | 12804 ft | 351 kts | 224° |
| 2026-04-30 11:56 | 31.09326 | 121.14737 | 13748 ft | 352 kts | 224° |
| 2026-04-30 11:56 | 31.07561 | 121.12780 | 14633 ft | 348 kts | 234° |
| 2026-04-30 11:57 | 31.06337 | 121.10388 | 15512 ft | 343 kts | 249° |
| 2026-04-30 11:57 | 31.05555 | 121.07754 | 16329 ft | 344 kts | 255° |
| 2026-04-30 11:57 | 31.04923 | 121.05058 | 17182 ft | 345 kts | 256° |
| 2026-04-30 11:57 | 31.04318 | 121.02348 | 17998 ft | 346 kts | 256° |
| 2026-04-30 11:58 | 31.03700 | 120.99625 | 18810 ft | 348 kts | 256° |
| 2026-04-30 11:58 | 31.03066 | 120.96896 | 19569 ft | 350 kts | 255° |
| 2026-04-30 11:58 | 31.02415 | 120.94153 | 20312 ft | 352 kts | 255° |
| 2026-04-30 11:58 | 31.01751 | 120.91401 | 21013 ft | 354 kts | 255° |
| 2026-04-30 11:59 | 31.01078 | 120.88636 | 21725 ft | 355 kts | 255° |
| 2026-04-30 11:59 | 31.00398 | 120.85860 | 22370 ft | 358 kts | 255° |
| 2026-04-30 11:59 | 30.99712 | 120.83064 | 23042 ft | 360 kts | 255° |
| 2026-04-30 11:59 | 30.99023 | 120.80256 | 23677 ft | 361 kts | 255° |
| 2026-04-30 12:00 | 30.98329 | 120.77439 | 24284 ft | 363 kts | 255° |
| 2026-04-30 12:00 | 30.97628 | 120.74603 | 24899 ft | 365 kts | 255° |
| 2026-04-30 12:00 | 30.96924 | 120.71754 | 25497 ft | 367 kts | 255° |
| 2026-04-30 12:00 | 30.96215 | 120.68888 | 26050 ft | 369 kts | 255° |
| 2026-04-30 12:01 | 30.95503 | 120.66012 | 26621 ft | 370 kts | 255° |
| 2026-04-30 12:01 | 30.94787 | 120.63120 | 27123 ft | 372 kts | 254° |
| 2026-04-30 12:01 | 30.94063 | 120.60205 | 27526 ft | 378 kts | 255° |
| 2026-04-30 12:01 | 30.93328 | 120.57249 | 27900 ft | 382 kts | 256° |
| 2026-04-30 12:02 | 30.92584 | 120.54263 | 28324 ft | 386 kts | 257° |
| 2026-04-30 12:02 | 30.91835 | 120.51250 | 28765 ft | 388 kts | 257° |
| 2026-04-30 12:02 | 30.91044 | 120.48229 | 29227 ft | 391 kts | 254° |
| 2026-04-30 12:02 | 30.89984 | 120.45288 | 29627 ft | 398 kts | 247° |
| 2026-04-30 12:03 | 30.88455 | 120.42564 | 30071 ft | 408 kts | 237° |
| 2026-04-30 12:03 | 30.84104 | 120.38148 | 30996 ft | 426 kts | 224° |
| 2026-04-30 12:03 | 30.81661 | 120.36202 | 31584 ft | 425 kts | 223° |
| 2026-04-30 12:04 | 30.79210 | 120.34291 | 32172 ft | 422 kts | 223° |
| 2026-04-30 12:04 | 30.76786 | 120.32377 | 32684 ft | 420 kts | 224° |
| 2026-04-30 12:04 | 30.74388 | 120.30447 | 33189 ft | 418 kts | 225° |
| 2026-04-30 12:04 | 30.72019 | 120.28513 | 33701 ft | 415 kts | 225° |
| 2026-04-30 12:05 | 30.69664 | 120.26572 | 34151 ft | 414 kts | 226° |
| 2026-04-30 12:05 | 30.67323 | 120.24635 | 34598 ft | 413 kts | 226° |
| 2026-04-30 12:05 | 30.64989 | 120.22701 | 35001 ft | 412 kts | 226° |
| 2026-04-30 12:05 | 30.62666 | 120.20776 | 35436 ft | 410 kts | 226° |
| 2026-04-30 12:06 | 30.60349 | 120.18856 | 35817 ft | 409 kts | 226° |
| 2026-04-30 12:06 | 30.58037 | 120.16941 | 36194 ft | 407 kts | 226° |
| 2026-04-30 12:06 | 30.55735 | 120.15035 | 36509 ft | 407 kts | 226° |
| 2026-04-30 12:06 | 30.53426 | 120.13123 | 36811 ft | 408 kts | 226° |
| 2026-04-30 12:07 | 30.51120 | 120.11218 | 37150 ft | 407 kts | 226° |
| 2026-04-30 12:07 | 30.48818 | 120.09319 | 37476 ft | 406 kts | 225° |
| 2026-04-30 12:07 | 30.46517 | 120.07434 | 37775 ft | 406 kts | 225° |
| 2026-04-30 12:08 | 30.41642 | 120.03934 | 37879 ft | 414 kts | 221° |
| 2026-04-30 12:08 | 30.36693 | 120.00665 | 37958 ft | 406 kts | 221° |
| 2026-04-30 12:09 | 30.31780 | 119.97408 | 37994 ft | 408 kts | 221° |
| 2026-04-30 12:09 | 30.26870 | 119.94129 | 37995 ft | 407 kts | 221° |
| 2026-04-30 12:10 | 30.21991 | 119.90874 | 37993 ft | 403 kts | 221° |
| 2026-04-30 12:10 | 30.17142 | 119.87633 | 37998 ft | 403 kts | 221° |
| 2026-04-30 12:11 | 30.12284 | 119.84388 | 37995 ft | 403 kts | 221° |
| 2026-04-30 12:11 | 30.07421 | 119.81151 | 37993 ft | 403 kts | 221° |
| 2026-04-30 12:12 | 30.02570 | 119.77902 | 38003 ft | 404 kts | 221° |
| 2026-04-30 12:12 | 29.97727 | 119.74634 | 37992 ft | 403 kts | 222° |
| 2026-04-30 12:13 | 29.92899 | 119.71374 | 37990 ft | 402 kts | 221° |
| 2026-04-30 12:13 | 29.88095 | 119.68126 | 37997 ft | 402 kts | 221° |
| 2026-04-30 12:14 | 29.83316 | 119.64802 | 37991 ft | 399 kts | 224° |
| 2026-04-30 12:14 | 29.78724 | 119.61228 | 38001 ft | 398 kts | 225° |
| 2026-04-30 12:15 | 29.74183 | 119.57615 | 37998 ft | 396 kts | 225° |
| 2026-04-30 12:15 | 29.69650 | 119.54022 | 37993 ft | 396 kts | 225° |
| 2026-04-30 12:16 | 29.65088 | 119.50412 | 37994 ft | 399 kts | 225° |
| 2026-04-30 12:16 | 29.60946 | 119.46363 | 37997 ft | 385 kts | 236° |
| 2026-04-30 12:17 | 29.55634 | 119.39503 | 37994 ft | 383 kts | 237° |
| 2026-04-30 12:17 | 29.52102 | 119.34920 | 37994 ft | 383 kts | 237° |
| 2026-04-30 12:18 | 29.48532 | 119.30352 | 37993 ft | 385 kts | 237° |
| 2026-04-30 12:18 | 29.44954 | 119.25798 | 37994 ft | 384 kts | 237° |
| 2026-04-30 12:19 | 29.41371 | 119.21244 | 37994 ft | 386 kts | 236° |
| 2026-04-30 12:19 | 29.37775 | 119.16676 | 37996 ft | 386 kts | 236° |
| 2026-04-30 12:20 | 29.34174 | 119.12121 | 37992 ft | 385 kts | 236° |
| 2026-04-30 12:20 | 29.30567 | 119.07567 | 37994 ft | 387 kts | 236° |
| 2026-04-30 12:21 | 29.26949 | 119.03003 | 37995 ft | 388 kts | 236° |
| 2026-04-30 12:21 | 29.23324 | 118.98436 | 37994 ft | 387 kts | 236° |
| 2026-04-30 12:22 | 29.19697 | 118.93879 | 37993 ft | 388 kts | 236° |
| 2026-04-30 12:22 | 29.16059 | 118.89305 | 37992 ft | 389 kts | 236° |
| 2026-04-30 12:23 | 29.12408 | 118.84727 | 37994 ft | 389 kts | 236° |
| 2026-04-30 12:23 | 29.08764 | 118.80155 | 37994 ft | 389 kts | 236° |
| 2026-04-30 12:24 | 29.05107 | 118.75575 | 37996 ft | 391 kts | 236° |
| 2026-04-30 12:24 | 29.02066 | 118.71773 | 37992 ft | 389 kts | 236° |
| 2026-04-30 12:25 | 28.98407 | 118.67199 | 37993 ft | 390 kts | 236° |
| 2026-04-30 12:25 | 28.94737 | 118.62616 | 37994 ft | 391 kts | 236° |
| 2026-04-30 12:26 | 28.91061 | 118.58037 | 37994 ft | 391 kts | 236° |
| 2026-04-30 12:26 | 28.87389 | 118.53460 | 37996 ft | 391 kts | 236° |
| 2026-04-30 12:27 | 28.83712 | 118.48880 | 37996 ft | 392 kts | 235° |
| 2026-04-30 12:27 | 28.80025 | 118.44302 | 37998 ft | 392 kts | 235° |
| 2026-04-30 12:28 | 28.76354 | 118.39745 | 37995 ft | 393 kts | 235° |
| 2026-04-30 12:28 | 28.72660 | 118.35165 | 37994 ft | 393 kts | 235° |
| 2026-04-30 12:29 | 28.68952 | 118.30570 | 37994 ft | 394 kts | 235° |
| 2026-04-30 12:29 | 28.65235 | 118.25996 | 37994 ft | 393 kts | 234° |
| 2026-04-30 12:30 | 28.61517 | 118.21417 | 37995 ft | 394 kts | 234° |
| 2026-04-30 12:30 | 28.57800 | 118.16831 | 37994 ft | 394 kts | 234° |
| 2026-04-30 12:31 | 28.54085 | 118.12250 | 37993 ft | 394 kts | 234° |
| 2026-04-30 12:31 | 28.50367 | 118.07671 | 37992 ft | 394 kts | 234° |
| 2026-04-30 12:32 | 28.46640 | 118.03090 | 37992 ft | 395 kts | 234° |
| 2026-04-30 12:32 | 28.42913 | 117.98511 | 37993 ft | 395 kts | 234° |
| 2026-04-30 12:33 | 28.39117 | 117.93956 | 37996 ft | 399 kts | 233° |
| 2026-04-30 12:33 | 28.35276 | 117.89428 | 37995 ft | 398 kts | 233° |
| 2026-04-30 12:34 | 28.31435 | 117.84905 | 37994 ft | 398 kts | 233° |
| 2026-04-30 12:34 | 28.27599 | 117.80374 | 37995 ft | 398 kts | 233° |
| 2026-04-30 12:35 | 28.23760 | 117.75848 | 37994 ft | 398 kts | 233° |
| 2026-04-30 12:35 | 28.19919 | 117.71325 | 37994 ft | 398 kts | 233° |
| 2026-04-30 12:36 | 28.16077 | 117.66809 | 37993 ft | 398 kts | 233° |
| 2026-04-30 12:36 | 28.12240 | 117.62301 | 37997 ft | 398 kts | 233° |
| 2026-04-30 12:37 | 28.08398 | 117.57792 | 37996 ft | 398 kts | 233° |
| 2026-04-30 12:37 | 28.04546 | 117.53283 | 37984 ft | 398 kts | 233° |
| 2026-04-30 12:38 | 28.00697 | 117.48790 | 37998 ft | 398 kts | 233° |
| 2026-04-30 12:38 | 27.96862 | 117.44311 | 37995 ft | 400 kts | 232° |
| 2026-04-30 12:39 | 27.92980 | 117.39769 | 37978 ft | 401 kts | 232° |
| 2026-04-30 12:39 | 27.89103 | 117.35242 | 38004 ft | 402 kts | 232° |
| 2026-04-30 12:40 | 27.85206 | 117.30693 | 37996 ft | 403 kts | 232° |
| 2026-04-30 12:40 | 27.81296 | 117.26139 | 37997 ft | 404 kts | 232° |
| 2026-04-30 12:41 | 27.77384 | 117.21589 | 37997 ft | 404 kts | 232° |
| 2026-04-30 12:41 | 27.73455 | 117.17024 | 37997 ft | 406 kts | 232° |
| 2026-04-30 12:42 | 27.69526 | 117.12465 | 38126 ft | 406 kts | 232° |
| 2026-04-30 12:42 | 27.65583 | 117.07887 | 38154 ft | 408 kts | 232° |
| 2026-04-30 12:43 | 27.61615 | 117.03287 | 38162 ft | 410 kts | 232° |
| 2026-04-30 12:43 | 27.57635 | 116.98683 | 38163 ft | 410 kts | 232° |
| 2026-04-30 12:44 | 27.53646 | 116.94070 | 38160 ft | 411 kts | 232° |
| 2026-04-30 12:44 | 27.49666 | 116.89456 | 38152 ft | 411 kts | 232° |
| 2026-04-30 12:45 | 27.45698 | 116.84824 | 38159 ft | 411 kts | 232° |
| 2026-04-30 12:45 | 27.41731 | 116.80184 | 38155 ft | 412 kts | 232° |
| 2026-04-30 12:46 | 27.37750 | 116.75532 | 38141 ft | 413 kts | 232° |
| 2026-04-30 12:46 | 27.33765 | 116.70880 | 38131 ft | 413 kts | 232° |
| 2026-04-30 12:47 | 27.29777 | 116.66227 | 38130 ft | 414 kts | 232° |
| 2026-04-30 12:47 | 27.25778 | 116.61570 | 38132 ft | 414 kts | 232° |
| 2026-04-30 12:48 | 27.21780 | 116.56915 | 38130 ft | 414 kts | 232° |
| 2026-04-30 12:48 | 27.17857 | 116.52238 | 38130 ft | 413 kts | 232° |
| 2026-04-30 12:49 | 27.13952 | 116.47503 | 38131 ft | 413 kts | 232° |
| 2026-04-30 12:49 | 27.10045 | 116.42761 | 38131 ft | 414 kts | 232° |
| 2026-04-30 12:50 | 27.06126 | 116.38019 | 38130 ft | 415 kts | 232° |
| 2026-04-30 12:50 | 27.02198 | 116.33274 | 38131 ft | 415 kts | 232° |
| 2026-04-30 12:51 | 26.98263 | 116.28525 | 38132 ft | 416 kts | 232° |
| 2026-04-30 12:51 | 26.94321 | 116.23770 | 38130 ft | 417 kts | 232° |
| 2026-04-30 12:52 | 26.90384 | 116.18998 | 38130 ft | 416 kts | 232° |
| 2026-04-30 12:52 | 26.86464 | 116.14210 | 38133 ft | 417 kts | 232° |
| 2026-04-30 12:53 | 26.82546 | 116.09416 | 38131 ft | 418 kts | 232° |
| 2026-04-30 12:53 | 26.78620 | 116.04617 | 38132 ft | 418 kts | 232° |
| 2026-04-30 12:54 | 26.74687 | 115.99812 | 38131 ft | 419 kts | 232° |
| 2026-04-30 12:54 | 26.70745 | 115.94999 | 38131 ft | 421 kts | 232° |
| 2026-04-30 12:55 | 26.66773 | 115.90159 | 38131 ft | 423 kts | 232° |
| 2026-04-30 12:55 | 26.62794 | 115.85315 | 38131 ft | 423 kts | 232° |
| 2026-04-30 12:56 | 26.58809 | 115.80470 | 38129 ft | 423 kts | 232° |
| 2026-04-30 12:56 | 26.54823 | 115.75628 | 38130 ft | 423 kts | 232° |
| 2026-04-30 12:57 | 26.50838 | 115.70794 | 38129 ft | 423 kts | 232° |
| 2026-04-30 12:57 | 26.46845 | 115.65959 | 38131 ft | 424 kts | 232° |
| 2026-04-30 12:58 | 26.42874 | 115.61150 | 38132 ft | 424 kts | 231° |
| 2026-04-30 12:58 | 26.38873 | 115.56308 | 38131 ft | 424 kts | 232° |
| 2026-04-30 12:59 | 26.34871 | 115.51479 | 38131 ft | 424 kts | 231° |
| 2026-04-30 12:59 | 26.30858 | 115.46659 | 38123 ft | 424 kts | 231° |
| 2026-04-30 13:00 | 26.26847 | 115.41835 | 38121 ft | 424 kts | 231° |
| 2026-04-30 13:00 | 26.22840 | 115.37015 | 38122 ft | 424 kts | 232° |
| 2026-04-30 13:01 | 26.18829 | 115.32192 | 38123 ft | 425 kts | 231° |
| 2026-04-30 13:01 | 26.14815 | 115.27371 | 38122 ft | 424 kts | 232° |
| 2026-04-30 13:02 | 26.10798 | 115.22549 | 38122 ft | 425 kts | 232° |
| 2026-04-30 13:02 | 26.06776 | 115.17727 | 38121 ft | 425 kts | 232° |
| 2026-04-30 13:03 | 26.02777 | 115.12939 | 38121 ft | 425 kts | 232° |
| 2026-04-30 13:03 | 25.98749 | 115.08121 | 38119 ft | 425 kts | 231° |
| 2026-04-30 13:04 | 25.94699 | 115.03279 | 38126 ft | 430 kts | 231° |
| 2026-04-30 13:04 | 25.90613 | 114.98407 | 38121 ft | 431 kts | 231° |
| 2026-04-30 13:05 | 25.86532 | 114.93542 | 38121 ft | 431 kts | 231° |
| 2026-04-30 13:06 | 25.79475 | 114.87300 | 38123 ft | 445 kts | 209° |
| 2026-04-30 13:06 | 25.73440 | 114.85377 | 38118 ft | 457 kts | 197° |
| 2026-04-30 13:07 | 25.67182 | 114.84063 | 38113 ft | 457 kts | 197° |
| 2026-04-30 13:07 | 25.60944 | 114.82650 | 38110 ft | 457 kts | 198° |
| 2026-04-30 13:08 | 25.54740 | 114.81132 | 38114 ft | 456 kts | 198° |
| 2026-04-30 13:08 | 25.48550 | 114.79586 | 38112 ft | 456 kts | 198° |
| 2026-04-30 13:09 | 25.42358 | 114.78040 | 38112 ft | 457 kts | 198° |
| 2026-04-30 13:09 | 25.36155 | 114.76496 | 38121 ft | 457 kts | 198° |
| 2026-04-30 13:10 | 25.29998 | 114.74969 | 38120 ft | 456 kts | 198° |
| 2026-04-30 13:10 | 25.23802 | 114.73431 | 38121 ft | 457 kts | 198° |
| 2026-04-30 13:11 | 25.17591 | 114.71893 | 38127 ft | 457 kts | 198° |
| 2026-04-30 13:11 | 25.11383 | 114.70355 | 38130 ft | 457 kts | 198° |
| 2026-04-30 13:12 | 25.05168 | 114.68815 | 38129 ft | 458 kts | 198° |
| 2026-04-30 13:12 | 24.98957 | 114.67281 | 38131 ft | 458 kts | 198° |
| 2026-04-30 13:13 | 24.89629 | 114.64988 | 38130 ft | 457 kts | 198° |
| 2026-04-30 13:14 | 24.81358 | 114.62944 | 38131 ft | 458 kts | 198° |
| 2026-04-30 13:14 | 24.72024 | 114.60638 | 38137 ft | 458 kts | 199° |
| 2026-04-30 13:15 | 24.63503 | 114.56415 | 38123 ft | 446 kts | 216° |
| 2026-04-30 13:16 | 24.58203 | 114.52868 | 38121 ft | 446 kts | 216° |
| 2026-04-30 13:16 | 24.52870 | 114.49375 | 38119 ft | 446 kts | 215° |
| 2026-04-30 13:17 | 24.44798 | 114.44237 | 38122 ft | 448 kts | 214° |
| 2026-04-30 13:18 | 24.36694 | 114.39120 | 38121 ft | 445 kts | 214° |
| 2026-04-30 13:18 | 24.31399 | 114.35790 | 37011 ft | 433 kts | 214° |
| 2026-04-30 13:18 | 24.28760 | 114.34124 | 36573 ft | 442 kts | 214° |
| 2026-04-30 13:19 | 24.26090 | 114.32437 | 36098 ft | 444 kts | 214° |
| 2026-04-30 13:19 | 24.23411 | 114.30749 | 35612 ft | 445 kts | 214° |
| 2026-04-30 13:19 | 24.20718 | 114.29056 | 35119 ft | 448 kts | 214° |
| 2026-04-30 13:19 | 24.18009 | 114.27353 | 34608 ft | 450 kts | 214° |
| 2026-04-30 13:20 | 24.15292 | 114.25646 | 34102 ft | 451 kts | 214° |
| 2026-04-30 13:20 | 24.12560 | 114.23927 | 33600 ft | 454 kts | 214° |
| 2026-04-30 13:20 | 24.09893 | 114.22065 | 33077 ft | 456 kts | 221° |
| 2026-04-30 13:20 | 24.07547 | 114.19745 | 32559 ft | 454 kts | 232° |
| 2026-04-30 13:21 | 24.05696 | 114.16962 | 32049 ft | 452 kts | 241° |
| 2026-04-30 13:21 | 24.04202 | 114.13927 | 31526 ft | 453 kts | 245° |
| 2026-04-30 13:21 | 24.02840 | 114.10813 | 30997 ft | 455 kts | 246° |
| 2026-04-30 13:22 | 24.00077 | 114.04530 | 29929 ft | 461 kts | 245° |
| 2026-04-30 13:22 | 23.98628 | 114.01390 | 29378 ft | 464 kts | 244° |
| 2026-04-30 13:22 | 23.95626 | 113.95102 | 28252 ft | 470 kts | 243° |
| 2026-04-30 13:23 | 23.94090 | 113.91941 | 27669 ft | 472 kts | 243° |
| 2026-04-30 13:23 | 23.90990 | 113.85573 | 26487 ft | 477 kts | 243° |
| 2026-04-30 13:24 | 23.87878 | 113.79179 | 25299 ft | 474 kts | 243° |
| 2026-04-30 13:24 | 23.84807 | 113.72855 | 24095 ft | 468 kts | 243° |
| 2026-04-30 13:25 | 23.81787 | 113.66625 | 22874 ft | 461 kts | 243° |
| 2026-04-30 13:25 | 23.78120 | 113.61003 | 21656 ft | 455 kts | 223° |
| 2026-04-30 13:26 | 23.70214 | 113.55488 | 19828 ft | 445 kts | 211° |
| 2026-04-30 13:26 | 23.64950 | 113.52150 | 18642 ft | 436 kts | 213° |
| 2026-04-30 13:27 | 23.60036 | 113.48438 | 17473 ft | 424 kts | 227° |
| 2026-04-30 13:28 | 23.56273 | 113.40044 | 15833 ft | 409 kts | 254° |
| 2026-04-30 13:28 | 23.54648 | 113.34150 | 14751 ft | 403 kts | 253° |
| 2026-04-30 13:28 | 23.53802 | 113.31254 | 14223 ft | 400 kts | 253° |
| 2026-04-30 13:29 | 23.52019 | 113.25564 | 13165 ft | 393 kts | 249° |
| 2026-04-30 13:29 | 23.48800 | 113.20864 | 12143 ft | 393 kts | 216° |
| 2026-04-30 13:30 | 23.40944 | 113.18480 | 11031 ft | 387 kts | 190° |
| 2026-04-30 13:31 | 23.35994 | 113.17651 | 10785 ft | 335 kts | 192° |
| 2026-04-30 13:31 | 23.29700 | 113.16425 | 10199 ft | 292 kts | 193° |
| 2026-04-30 13:32 | 23.25736 | 113.15599 | 9286 ft | 287 kts | 192° |
| 2026-04-30 13:32 | 23.21843 | 113.14785 | 8536 ft | 285 kts | 192° |
| 2026-04-30 13:33 | 23.18021 | 113.13871 | 7961 ft | 272 kts | 194° |
| 2026-04-30 13:33 | 23.14594 | 113.12993 | 7900 ft | 235 kts | 186° |
| 2026-04-30 13:34 | 23.12950 | 113.13027 | 7858 ft | 240 kts | 170° |
| 2026-04-30 13:34 | 23.10847 | 113.17377 | 6091 ft | 254 kts | 62° |
| 2026-04-30 13:35 | 23.12040 | 113.18708 | 5715 ft | 247 kts | 26° |
| 2026-04-30 13:35 | 23.15346 | 113.19107 | 5031 ft | 236 kts | 359° |
| 2026-04-30 13:36 | 23.18346 | 113.19693 | 4702 ft | 223 kts | 37° |
| 2026-04-30 13:36 | 23.19422 | 113.20890 | 4346 ft | 220 kts | 50° |
| 2026-04-30 13:36 | 23.21227 | 113.23428 | 3554 ft | 204 kts | 52° |
| 2026-04-30 13:37 | 23.22053 | 113.24620 | 3175 ft | 193 kts | 52° |
| 2026-04-30 13:37 | 23.23548 | 113.26690 | 2631 ft | 161 kts | 40° |
| 2026-04-30 13:38 | 23.25566 | 113.27613 | 2383 ft | 162 kts | 21° |
| 2026-04-30 13:38 | 23.26644 | 113.27989 | 2155 ft | 163 kts | 18° |
| 2026-04-30 13:38 | 23.28847 | 113.28587 | 1707 ft | 164 kts | 14° |
| 2026-04-30 13:39 | 23.31059 | 113.29182 | 1263 ft | 162 kts | 12° |
| 2026-04-30 13:39 | 23.33159 | 113.29741 | 825 ft | 151 kts | 12° |
| 2026-04-30 13:40 | 23.34181 | 113.30021 | 643 ft | 152 kts | 13° |
| 2026-04-30 13:40 | 23.35201 | 113.30298 | 435 ft | 151 kts | 13° |
| 2026-04-30 13:40 | 23.36222 | 113.30575 | 239 ft | 151 kts | 13° |
| 2026-04-30 13:40 | 23.37238 | 113.30848 | 63 ft | 147 kts | 14° |
| 2026-04-30 13:41 | 23.38074 | 113.31072 | 60 ft | 99 kts | 14° |
| 2026-04-30 13:41 | 23.38617 | 113.31219 | 61 ft | 64 kts | 14° |
| 2026-04-30 13:41 | 23.38967 | 113.31329 | 60 ft | 44 kts | 28° |
| 2026-04-30 13:41 | 23.39116 | 113.31458 | 61 ft | 13 kts | 42° |
| 2026-04-30 13:42 | 23.39180 | 113.31521 | 57 ft | 12 kts | 42° |
| 2026-04-30 13:42 | 23.39242 | 113.31578 | 66 ft | 11 kts | 34° |
| 2026-04-30 13:42 | 23.39362 | 113.31622 | 62 ft | 8 kts | 15° |
| 2026-04-30 13:43 | 23.39416 | 113.31637 | 63 ft | 8 kts | 15° |
| 2026-04-30 13:43 | 23.39466 | 113.31651 | 59 ft | 7 kts | 13° |
| 2026-04-30 13:43 | 23.39512 | 113.31663 | 59 ft | 7 kts | 13° |
| 2026-04-30 13:43 | 23.39558 | 113.31675 | 57 ft | 7 kts | 13° |
| 2026-04-30 13:44 | 23.39605 | 113.31687 | 66 ft | 7 kts | 13° |
| 2026-04-30 13:44 | 23.39653 | 113.31700 | 60 ft | 7 kts | 13° |
| 2026-04-30 13:44 | 23.39702 | 113.31712 | 58 ft | 8 kts | 13° |
| 2026-04-30 13:44 | 23.39768 | 113.31730 | 61 ft | 13 kts | 14° |
| 2026-04-30 13:45 | 23.39955 | 113.31782 | 61 ft | 15 kts | 14° |
| 2026-04-30 13:45 | 23.40055 | 113.31809 | 64 ft | 15 kts | 13° |
| 2026-04-30 13:45 | 23.40160 | 113.31836 | 65 ft | 15 kts | 13° |
| 2026-04-30 13:46 | 23.40217 | 113.31866 | 58 ft | 7 kts | 52° |
| 2026-04-30 13:46 | 23.40218 | 113.31908 | 58 ft | 5 kts | 105° |
| 2026-04-30 13:46 | 23.40207 | 113.31954 | 58 ft | 7 kts | 104° |
| 2026-04-30 13:46 | 23.40194 | 113.32010 | 59 ft | 8 kts | 104° |
| 2026-04-30 13:47 | 23.40178 | 113.32077 | 64 ft | 10 kts | 104° |
| 2026-04-30 13:47 | 23.40155 | 113.32124 | 58 ft | 6 kts | 134° |
| 2026-04-30 13:47 | 23.40142 | 113.32160 | 60 ft | 5 kts | 103° |
| 2026-04-30 13:47 | 23.40133 | 113.32199 | 60 ft | 1 kts | 103° |
| 2026-04-30 13:48 | 23.40131 | 113.32212 | 66 ft | 2 kts | 103° |
| 2026-04-30 13:48 | 23.40127 | 113.32228 | 58 ft | 0 kts | 104° |